Time;durP1;ratioP1;P1;durP2;ratioP2;P2;SDS_P1;SDS_P2;PMS_P1;PMS_P2;Temp;Humidity;BMP_temperature;BMP_pressure;BME280_temperature;BME280_humidity;BME280_pressure;Samples;Min_cycle;Max_cycle;Signal;HPM_P1;HPM_P2
2022/09/11 03:28:13;;;;;;;1.30;0.90;;;18.10;91.70;;;;;;5097505;22;20501;-65
2022/09/11 03:30:40;;;;;;;4.80;0.80;;;18.10;91.70;;;;;;5083510;28;20473;-66
2022/09/11 03:33:06;;;;;;;2.65;0.95;;;18.10;91.70;;;;;;5088443;28;20392;-65
2022/09/11 03:35:32;;;;;;;1.75;0.70;;;18.10;91.70;;;;;;5066070;28;20481;-65
2022/09/11 03:37:58;;;;;;;1.92;0.98;;;18.10;91.70;;;;;;5105042;28;20024;-66
2022/09/11 03:40:24;;;;;;;1.60;0.80;;;18.10;91.70;;;;;;5066263;28;20499;-65
2022/09/11 03:42:49;;;;;;;4.47;0.88;;;18.10;91.70;;;;;;5089287;28;20115;-65
2022/09/11 03:45:15;;;;;;;0.82;0.63;;;18.10;91.70;;;;;;5082729;28;20046;-65
2022/09/11 03:47:43;;;;;;;1.55;0.73;;;18.10;91.70;;;;;;5091585;28;20086;-66
2022/09/11 03:50:09;;;;;;;2.97;0.70;;;18.10;91.70;;;;;;5101099;28;20048;-65
2022/09/11 03:52:35;;;;;;;1.85;0.90;;;18.10;91.70;;;;;;5101471;28;20349;-65
2022/09/11 03:55:03;;;;;;;1.45;1.08;;;18.10;91.70;;;;;;5089486;28;20554;-65
2022/09/11 03:57:31;;;;;;;1.88;0.90;;;18.10;91.70;;;;;;5085645;28;20430;-65
2022/09/11 03:59:56;;;;;;;4.07;0.88;;;18.10;91.70;;;;;;5058648;28;20028;-65
2022/09/11 04:02:22;;;;;;;1.02;0.90;;;18.10;91.70;;;;;;5058552;28;20473;-65
2022/09/11 04:04:48;;;;;;;2.75;1.42;;;18.10;91.70;;;;;;5085882;28;20438;-65
2022/09/11 04:07:13;;;;;;;2.42;0.70;;;18.10;91.70;;;;;;5094091;28;20024;-66
2022/09/11 04:09:39;;;;;;;5.05;0.90;;;18.10;91.70;;;;;;5102390;28;20081;-65
2022/09/11 04:12:05;;;;;;;1.52;0.90;;;18.10;91.70;;;;;;5104387;28;20099;-65
2022/09/11 04:14:31;;;;;;;1.08;0.80;;;18.10;91.70;;;;;;5084279;28;20025;-65
2022/09/11 04:16:58;;;;;;;3.92;0.98;;;18.10;91.70;;;;;;5086935;28;20484;-65
2022/09/11 04:19:23;;;;;;;0.98;0.90;;;18.10;91.70;;;;;;5103444;28;20036;-65
2022/09/11 04:21:49;;;;;;;1.25;0.90;;;18.10;91.70;;;;;;5100838;28;20109;-65
2022/09/11 04:24:15;;;;;;;0.77;0.77;;;18.10;91.70;;;;;;5093022;28;20016;-65
2022/09/11 04:26:41;;;;;;;2.40;0.90;;;18.10;91.70;;;;;;5091394;28;20553;-65
2022/09/11 04:29:06;;;;;;;1.10;1.00;;;18.10;91.70;;;;;;5087969;28;20551;-66
2022/09/11 04:31:35;;;;;;;1.23;1.08;;;18.10;91.70;;;;;;5053919;28;20492;-65
2022/09/11 04:34:00;;;;;;;2.65;1.00;;;18.10;91.70;;;;;;5066306;28;20031;-65
2022/09/11 04:36:28;;;;;;;1.10;1.00;;;18.10;91.70;;;;;;5064354;28;20024;-65
2022/09/11 04:38:56;;;;;;;5.00;1.42;;;18.10;91.70;;;;;;5061111;28;20032;-65
2022/09/11 04:41:23;;;;;;;3.22;1.10;;;18.10;91.70;;;;;;5095714;28;20028;-65
2022/09/11 04:43:52;;;;;;;4.63;0.88;;;18.10;91.70;;;;;;5094762;28;20500;-65
2022/09/11 04:46:18;;;;;;;0.87;0.87;;;18.10;91.70;;;;;;5079076;28;20025;-65
2022/09/11 04:48:47;;;;;;;1.35;0.70;;;18.10;91.70;;;;;;5099539;28;20065;-66
2022/09/11 04:51:25;;;;;;;2.53;1.02;;;18.10;91.70;;;;;;5085719;28;20027;-65
2022/09/11 04:53:53;;;;;;;0.70;0.70;;;18.10;91.70;;;;;;5082094;28;20031;-65
2022/09/11 04:56:22;;;;;;;2.55;1.00;;;18.10;91.80;;;;;;5060206;28;20024;-65
2022/09/11 04:59:02;;;;;;;1.95;0.80;;;18.10;91.70;;;;;;5064259;28;20040;-65
2022/09/11 05:01:29;;;;;;;3.03;0.90;;;18.10;91.70;;;;;;5075129;28;20043;-66
2022/09/11 05:03:55;;;;;;;2.83;1.20;;;18.10;91.80;;;;;;5059877;28;20055;-65
2022/09/11 05:06:21;;;;;;;1.60;1.08;;;18.10;91.80;;;;;;5083208;28;20481;-65
2022/09/11 05:08:49;;;;;;;6.10;1.23;;;18.10;91.70;;;;;;5099726;28;20081;-65
2022/09/11 05:11:17;;;;;;;1.35;1.10;;;18.10;91.80;;;;;;5085170;28;20106;-66
2022/09/11 05:13:43;;;;;;;4.10;1.27;;;18.10;91.70;;;;;;5096411;28;20035;-66
2022/09/11 05:16:11;;;;;;;5.57;1.23;;;18.10;91.80;;;;;;5075837;28;20104;-66
2022/09/11 05:18:41;;;;;;;2.67;1.17;;;18.10;91.80;;;;;;5090842;28;20032;-66
2022/09/11 05:21:14;;;;;;;1.67;1.30;;;18.10;91.80;;;;;;5099544;28;20430;-66
2022/09/11 05:23:40;;;;;;;2.50;1.20;;;18.10;91.80;;;;;;5099998;28;20055;-66
2022/09/11 05:26:12;;;;;;;4.00;1.48;;;18.10;91.80;;;;;;5092212;28;20028;-65
2022/09/11 05:28:38;;;;;;;3.25;1.48;;;18.10;91.80;;;;;;5062896;28;20032;-65
2022/09/11 05:31:11;;;;;;;3.03;1.17;;;18.10;91.80;;;;;;5078165;28;20093;-65
2022/09/11 05:33:36;;;;;;;1.10;1.00;;;18.10;91.80;;;;;;5102890;28;20020;-65
2022/09/11 05:36:04;;;;;;;3.85;1.00;;;18.10;91.80;;;;;;5085231;28;20023;-65
2022/09/11 05:38:29;;;;;;;3.33;1.13;;;18.00;91.80;;;;;;5064243;28;20031;-65
2022/09/11 05:40:55;;;;;;;3.63;1.20;;;18.10;91.80;;;;;;5090488;28;20096;-66
2022/09/11 05:43:21;;;;;;;1.80;1.25;;;18.10;91.80;;;;;;5064515;28;20074;-65
2022/09/11 05:45:55;;;;;;;1.73;1.10;;;18.10;91.80;;;;;;5085685;28;20012;-65
2022/09/11 05:48:23;;;;;;;1.27;1.17;;;18.10;91.80;;;;;;5090668;28;20106;-65
2022/09/11 05:50:54;;;;;;;4.03;1.40;;;18.10;91.80;;;;;;5081920;28;20474;-65
2022/09/11 05:53:21;;;;;;;1.95;1.10;;;18.10;91.80;;;;;;5092658;28;20012;-66
2022/09/11 05:55:47;;;;;;;3.10;1.10;;;18.10;91.80;;;;;;5095888;28;20028;-65
2022/09/11 05:58:13;;;;;;;4.40;1.20;;;18.10;91.80;;;;;;5077727;28;20115;-66
2022/09/11 06:00:39;;;;;;;1.73;1.15;;;18.10;91.80;;;;;;5078153;28;20445;-65
2022/09/11 06:03:06;;;;;;;1.48;1.00;;;18.10;91.80;;;;;;5090211;28;20054;-65
2022/09/11 06:05:32;;;;;;;1.65;1.02;;;18.10;91.80;;;;;;5090040;28;20052;-65
2022/09/11 06:08:00;;;;;;;2.40;0.90;;;18.10;92.20;;;;;;5081107;28;20119;-65
2022/09/11 06:10:26;;;;;;;1.63;0.80;;;18.10;91.80;;;;;;5102232;28;20553;-65
2022/09/11 06:12:51;;;;;;;1.95;0.75;;;18.10;91.80;;;;;;5100946;28;20422;-66
2022/09/11 06:15:17;;;;;;;2.15;1.15;;;18.10;91.80;;;;;;5085714;28;20107;-65
2022/09/11 06:17:43;;;;;;;1.67;1.00;;;18.10;91.80;;;;;;5079736;28;20040;-65
2022/09/11 06:20:11;;;;;;;0.98;0.98;;;18.10;91.80;;;;;;5085888;28;20119;-65
2022/09/11 06:22:37;;;;;;;3.55;1.50;;;18.10;91.80;;;;;;5082778;28;20068;-65
2022/09/11 06:25:03;;;;;;;2.45;1.42;;;18.20;91.80;;;;;;5084402;28;20035;-66
2022/09/11 06:27:28;;;;;;;5.18;1.98;;;18.20;91.80;;;;;;5062610;28;20032;-65
2022/09/11 06:29:54;;;;;;;3.28;2.22;;;18.20;91.80;;;;;;5068384;28;20029;-65
2022/09/11 06:32:21;;;;;;;1.77;1.63;;;18.20;91.70;;;;;;5065225;28;20083;-65
2022/09/11 06:34:46;;;;;;;2.67;1.90;;;18.30;91.80;;;;;;5059522;28;20057;-66
2022/09/11 06:37:12;;;;;;;3.95;2.10;;;18.30;91.80;;;;;;5059503;28;20070;-65
2022/09/11 06:39:38;;;;;;;3.40;1.90;;;18.30;91.80;;;;;;5085102;28;20036;-65
2022/09/11 06:42:04;;;;;;;7.30;2.38;;;18.30;91.80;;;;;;5084408;28;20021;-65
2022/09/11 06:44:29;;;;;;;6.25;2.40;;;18.30;91.80;;;;;;5076094;28;20033;-65
2022/09/11 06:46:56;;;;;;;3.33;2.40;;;18.30;91.80;;;;;;5068798;28;20038;-65
2022/09/11 06:49:22;;;;;;;6.53;2.42;;;18.40;91.80;;;;;;5065108;28;20032;-66
2022/09/11 06:52:25;;;;;;;4.35;2.90;;;18.40;91.80;;;;;;5070123;28;20024;-65
2022/09/11 06:54:52;;;;;;;5.18;2.55;;;18.40;91.80;;;;;;5055559;28;20465;-65
2022/09/11 06:57:18;;;;;;;5.15;2.60;;;18.50;91.80;;;;;;5055550;28;20036;-65
2022/09/11 06:59:44;;;;;;;7.10;2.97;;;18.50;91.80;;;;;;5060940;28;20033;-65
2022/09/11 07:02:10;;;;;;;3.80;2.97;;;18.50;91.80;;;;;;5061351;28;20444;-66
2022/09/11 07:04:39;;;;;;;4.78;3.30;;;18.50;91.70;;;;;;5057529;28;20044;-65
2022/09/11 07:10:33;;;;;;;3.30;2.75;;;18.50;91.70;;;;;;5063004;28;20358;-66
2022/09/11 07:12:58;;;;;;;5.47;3.78;;;18.60;91.70;;;;;;5064605;28;20124;-65
2022/09/11 07:15:35;;;;;;;5.25;3.75;;;18.60;91.70;;;;;;5077909;28;20517;-65
2022/09/11 07:18:11;;;;;;;4.70;3.85;;;18.60;91.70;;;;;;5071969;28;20020;-65
2022/09/11 07:20:39;;;;;;;5.68;3.47;;;18.60;91.70;;;;;;5043277;28;20056;-65
2022/09/11 07:23:04;;;;;;;6.35;3.55;;;18.60;91.70;;;;;;5060887;28;20031;-66
2022/09/11 07:25:30;;;;;;;7.03;3.60;;;18.70;91.70;;;;;;5081152;28;20020;-65
2022/09/11 07:27:55;;;;;;;5.95;3.58;;;18.70;91.70;;;;;;5050935;28;20036;-66
2022/09/11 07:33:51;;;;;;;4.45;3.63;;;18.70;91.70;;;;;;5019614;28;20033;-66
2022/09/11 07:36:28;;;;;;;4.47;3.47;;;18.70;91.70;;;;;;5035699;28;20036;-65
2022/09/11 07:38:56;;;;;;;6.07;3.63;;;18.70;91.70;;;;;;5037886;28;20132;-66
2022/09/11 07:41:23;;;;;;;7.40;4.15;;;18.70;91.70;;;;;;5021387;28;20470;-66
2022/09/11 07:43:53;;;;;;;4.45;3.60;;;18.70;91.70;;;;;;5027617;28;20041;-66
2022/09/11 07:46:20;;;;;;;7.72;4.05;;;18.70;91.60;;;;;;5016780;28;20125;-66
2022/09/11 07:48:46;;;;;;;8.35;4.13;;;18.70;91.60;;;;;;5011387;28;20037;-65
2022/09/11 07:51:14;;;;;;;8.25;5.05;;;18.70;91.60;;;;;;5031809;28;20026;-65
2022/09/11 07:53:42;;;;;;;6.75;4.60;;;18.70;91.60;;;;;;5020366;28;20075;-65
2022/09/11 07:56:23;;;;;;;7.00;4.68;;;18.70;91.60;;;;;;5023996;28;20071;-66
2022/09/11 07:58:51;;;;;;;6.60;4.55;;;18.80;91.70;;;;;;5020456;28;20697;-67
2022/09/11 08:01:18;;;;;;;8.75;4.43;;;18.80;91.70;;;;;;4998270;28;20072;-65
2022/09/11 08:03:45;;;;;;;10.20;4.85;;;18.80;91.70;;;;;;5044803;28;20036;-65
2022/09/11 08:06:13;;;;;;;7.45;4.53;;;18.80;91.70;;;;;;5062842;28;20032;-65
2022/09/11 08:08:40;;;;;;;8.73;5.20;;;18.80;91.70;;;;;;5056322;28;20400;-66
2022/09/11 08:11:12;;;;;;;7.07;4.72;;;18.80;91.60;;;;;;5066722;28;20049;-65
2022/09/11 08:13:38;;;;;;;7.72;4.40;;;18.80;91.60;;;;;;5060738;28;20021;-65
2022/09/11 08:16:05;;;;;;;5.00;4.40;;;18.80;91.70;;;;;;5046930;28;20044;-65
2022/09/11 08:18:31;;;;;;;7.70;4.70;;;18.80;91.60;;;;;;5067950;28;20416;-65
2022/09/11 08:21:04;;;;;;;5.80;4.63;;;18.80;91.60;;;;;;5066421;28;20035;-65
2022/09/11 08:23:31;;;;;;;7.63;4.75;;;18.80;91.60;;;;;;5059445;28;20108;-65
2022/09/11 08:26:08;;;;;;;8.50;5.13;;;18.90;91.60;;;;;;5065164;28;20098;-65
2022/09/11 08:28:35;;;;;;;7.55;4.93;;;18.90;91.60;;;;;;5059946;28;20386;-65
2022/09/11 08:31:01;;;;;;;6.07;3.70;;;18.90;91.60;;;;;;5066842;28;20029;-65
2022/09/11 08:33:28;;;;;;;6.55;4.70;;;19.00;91.70;;;;;;5050088;28;20019;-65
2022/09/11 08:35:56;;;;;;;8.27;3.72;;;18.90;91.70;;;;;;5045664;28;20028;-65
2022/09/11 08:38:22;;;;;;;6.50;4.53;;;19.00;91.70;;;;;;5071823;28;20556;-65
2022/09/11 08:40:47;;;;;;;7.05;4.32;;;19.00;91.70;;;;;;5079904;28;20083;-65
2022/09/11 08:43:21;;;;;;;5.82;3.97;;;19.00;91.70;;;;;;5080375;28;20036;-65
2022/09/11 08:45:50;;;;;;;5.50;3.97;;;19.00;91.70;;;;;;5075109;28;20063;-65
2022/09/11 08:48:20;;;;;;;12.30;4.97;;;19.00;91.70;;;;;;5045368;28;20020;-66
2022/09/11 08:50:48;;;;;;;10.00;4.57;;;19.10;91.70;;;;;;5059752;28;20020;-65
2022/09/11 08:53:17;;;;;;;6.75;4.45;;;19.10;91.60;;;;;;5061700;28;20087;-65
2022/09/11 08:55:49;;;;;;;6.55;4.20;;;19.10;91.60;;;;;;5060730;28;20036;-66
2022/09/11 08:58:38;;;;;;;5.18;3.65;;;19.20;91.60;;;;;;5069045;28;20047;-65
2022/09/11 09:01:27;;;;;;;4.28;3.33;;;19.20;91.60;;;;;;5061535;28;20043;-65
2022/09/11 09:04:17;;;;;;;7.70;4.33;;;19.20;91.60;;;;;;5027870;28;20450;-65
2022/09/11 09:06:48;;;;;;;5.40;3.55;;;19.20;91.60;;;;;;5061389;28;20283;-65
2022/09/11 09:09:33;;;;;;;9.88;4.53;;;19.20;91.50;;;;;;5066418;28;20048;-66
2022/09/11 09:12:31;;;;;;;4.97;3.67;;;19.30;91.50;;;;;;5062786;28;20028;-65
2022/09/11 09:15:25;;;;;;;8.52;4.75;;;19.30;91.50;;;;;;5039296;28;20075;-65
2022/09/11 09:17:58;;;;;;;5.47;3.90;;;19.30;91.40;;;;;;5037341;28;20032;-65
2022/09/11 09:20:43;;;;;;;4.95;3.40;;;19.30;91.40;;;;;;5066542;28;20033;-65
2022/09/11 09:23:20;;;;;;;6.00;3.47;;;19.30;91.30;;;;;;5062285;28;20108;-66
2022/09/11 09:25:47;;;;;;;3.50;2.70;;;19.30;91.30;;;;;;5058651;28;20060;-66
2022/09/11 09:28:18;;;;;;;6.32;3.15;;;19.40;91.30;;;;;;5065695;28;20032;-65
2022/09/11 09:30:53;;;;;;;9.48;3.88;;;19.40;91.30;;;;;;5060262;28;20625;-65
2022/09/11 09:33:27;;;;;;;6.30;3.58;;;19.40;91.20;;;;;;5080152;28;20047;-66
2022/09/11 09:35:56;;;;;;;4.75;2.67;;;19.40;91.20;;;;;;5082222;28;20086;-65
2022/09/11 09:38:26;;;;;;;4.23;3.27;;;19.40;91.20;;;;;;5064391;28;20021;-65
2022/09/11 09:41:09;;;;;;;3.58;2.72;;;19.40;91.20;;;;;;5073146;28;20017;-65
2022/09/11 09:43:44;;;;;;;4.75;2.75;;;19.40;91.20;;;;;;5065067;28;20492;-65
2022/09/11 09:46:13;;;;;;;3.13;2.83;;;19.40;91.20;;;;;;5053712;28;20587;-66
2022/09/11 09:48:39;;;;;;;4.25;3.03;;;19.40;91.20;;;;;;5063073;28;20548;-66
2022/09/11 09:51:05;;;;;;;2.90;2.42;;;19.40;91.20;;;;;;5063998;28;20033;-65
2022/09/11 09:53:53;;;;;;;3.45;2.88;;;19.40;91.20;;;;;;5067062;28;20058;-65
2022/09/11 09:56:22;;;;;;;3.70;2.63;;;19.40;91.20;;;;;;5066611;28;20493;-66
2022/09/11 09:58:59;;;;;;;3.75;2.88;;;19.40;91.20;;;;;;5060217;28;20050;-66
2022/09/11 10:01:46;;;;;;;4.93;2.88;;;19.40;91.20;;;;;;5054420;28;20032;-65
2022/09/11 10:04:18;;;;;;;3.85;2.92;;;19.40;91.20;;;;;;5061884;28;20070;-65
2022/09/11 10:06:45;;;;;;;6.47;3.33;;;19.40;91.20;;;;;;5065217;28;20029;-66
2022/09/11 10:09:29;;;;;;;4.50;2.92;;;19.40;91.10;;;;;;5058614;28;20356;-65
2022/09/11 10:12:01;;;;;;;4.28;3.20;;;19.40;91.20;;;;;;5064708;28;20025;-65
2022/09/11 10:14:31;;;;;;;3.78;3.08;;;19.40;91.20;;;;;;5069894;28;20369;-66
2022/09/11 10:16:57;;;;;;;10.43;3.65;;;19.40;91.30;;;;;;5072579;28;20111;-65
2022/09/11 10:19:37;;;;;;;4.72;3.28;;;19.40;91.20;;;;;;5058657;28;20064;-66
2022/09/11 10:22:22;;;;;;;3.88;3.30;;;19.40;91.20;;;;;;5061420;28;20028;-66
2022/09/11 10:24:58;;;;;;;7.05;3.78;;;19.40;91.20;;;;;;5058462;28;20028;-65
2022/09/11 10:27:24;;;;;;;10.63;3.35;;;19.40;91.20;;;;;;5061312;28;20048;-66
2022/09/11 10:29:50;;;;;;;4.60;2.85;;;19.40;91.20;;;;;;5061202;28;20082;-67
2022/09/11 10:32:16;;;;;;;4.05;2.80;;;19.40;91.20;;;;;;5065902;28;20426;-65
2022/09/11 10:34:42;;;;;;;3.42;2.90;;;19.40;91.20;;;;;;5060299;28;20021;-66
2022/09/11 10:37:13;;;;;;;3.90;3.10;;;19.40;91.20;;;;;;5058675;28;20048;-66
2022/09/11 10:39:42;;;;;;;4.32;2.58;;;19.40;91.20;;;;;;5060510;28;20119;-65
2022/09/11 10:42:16;;;;;;;3.92;2.70;;;19.40;91.20;;;;;;5064726;28;20075;-66
2022/09/11 10:44:46;;;;;;;2.95;2.65;;;19.40;91.20;;;;;;5061405;28;20055;-65
2022/09/11 10:50:33;;;;;;;3.85;2.97;;;19.40;91.20;;;;;;5070803;28;19915;-65
2022/09/11 10:53:16;;;;;;;6.25;3.03;;;19.40;91.20;;;;;;5070664;28;20474;-65
2022/09/11 10:55:51;;;;;;;4.22;2.80;;;19.40;91.30;;;;;;5061194;28;20044;-65
2022/09/11 10:58:20;;;;;;;4.00;2.92;;;19.40;91.30;;;;;;5064160;28;20466;-65
2022/09/11 11:00:48;;;;;;;3.03;2.75;;;19.40;91.30;;;;;;5057827;28;20024;-66
2022/09/11 11:03:21;;;;;;;3.42;2.80;;;19.40;91.30;;;;;;5063862;28;20397;-65
2022/09/11 11:06:18;;;;;;;5.40;3.45;;;19.40;91.30;;;;;;5061167;28;20074;-66
2022/09/11 11:09:12;;;;;;;5.90;2.95;;;19.40;91.30;;;;;;5069174;28;20063;-65
2022/09/11 11:11:59;;;;;;;6.05;3.10;;;19.40;91.30;;;;;;5059236;28;20024;-65
2022/09/11 11:14:56;;;;;;;5.95;2.88;;;19.40;91.30;;;;;;5057015;28;20041;-65
2022/09/11 11:17:21;;;;;;;8.50;2.97;;;19.40;91.30;;;;;;5058535;28;20075;-65
2022/09/11 11:20:12;;;;;;;4.50;2.55;;;19.40;91.30;;;;;;5064744;28;20032;-65
2022/09/11 11:22:57;;;;;;;2.85;2.20;;;19.40;91.30;;;;;;5059034;28;20029;-66
2022/09/11 11:25:49;;;;;;;2.85;2.15;;;19.40;91.30;;;;;;5060350;28;20401;-65
2022/09/11 11:29:13;;;;;;;3.90;1.92;;;19.40;91.30;;;;;;5056578;28;20033;-67
2022/09/11 11:31:54;;;;;;;4.97;2.00;;;19.40;91.30;;;;;;4985288;28;20042;-67
2022/09/11 11:34:54;;;;;;;2.17;1.90;;;19.40;91.30;;;;;;4986261;28;20295;-65
2022/09/11 11:37:35;;;;;;;2.33;1.80;;;19.40;91.20;;;;;;4993951;28;20046;-66
2022/09/11 11:40:41;;;;;;;4.05;2.28;;;19.30;91.00;;;;;;5002314;28;20058;-66
2022/09/11 11:43:12;;;;;;;3.83;2.05;;;19.30;90.90;;;;;;4933227;29;20110;-66
2022/09/11 11:45:45;;;;;;;2.22;1.88;;;19.30;90.80;;;;;;4946324;29;20041;-66
2022/09/11 11:48:19;;;;;;;3.17;2.40;;;19.30;90.80;;;;;;4933536;28;20027;-66
2022/09/11 11:50:56;;;;;;;3.47;1.90;;;19.30;90.60;;;;;;4950613;29;20035;-66
2022/09/11 11:53:34;;;;;;;5.28;2.33;;;19.30;90.50;;;;;;4950880;29;20519;-66
2022/09/11 11:56:13;;;;;;;2.70;1.90;;;19.30;90.50;;;;;;4942022;29;20047;-66
2022/09/11 11:59:22;;;;;;;2.10;1.75;;;19.30;90.50;;;;;;4950128;29;20058;-66
2022/09/11 12:01:57;;;;;;;6.50;2.17;;;19.30;90.40;;;;;;4956145;28;20042;-66
2022/09/11 12:04:41;;;;;;;5.20;2.13;;;19.30;90.40;;;;;;4950930;28;20039;-66
2022/09/11 12:07:15;;;;;;;2.45;2.25;;;19.30;90.40;;;;;;4950867;28;20063;-66
2022/09/11 12:09:49;;;;;;;6.82;2.35;;;19.30;90.70;;;;;;4981206;28;20023;-66
2022/09/11 12:12:15;;;;;;;3.80;2.30;;;19.30;90.40;;;;;;4984694;28;20030;-66
2022/09/11 12:15:08;;;;;;;4.05;2.47;;;19.30;90.40;;;;;;5048149;28;20483;-66
2022/09/11 12:17:36;;;;;;;6.97;2.45;;;19.30;90.40;;;;;;5061560;28;20513;-67
2022/09/11 12:20:10;;;;;;;3.15;2.10;;;19.30;90.40;;;;;;5071655;28;20063;-66
2022/09/11 12:22:41;;;;;;;4.28;2.40;;;19.30;90.30;;;;;;5069731;28;20503;-67
2022/09/11 12:25:22;;;;;;;2.47;1.83;;;19.30;90.30;;;;;;5066791;28;20127;-66
2022/09/11 12:27:47;;;;;;;4.22;2.13;;;19.30;90.30;;;;;;5066405;28;20024;-66
2022/09/11 12:30:16;;;;;;;4.22;2.42;;;19.30;90.20;;;;;;5063183;28;20044;-66
2022/09/11 12:32:46;;;;;;;3.95;1.80;;;19.30;90.20;;;;;;5062351;28;20538;-66
2022/09/11 12:35:45;;;;;;;2.17;2.00;;;19.30;90.20;;;;;;5062527;28;20067;-66
2022/09/11 12:38:13;;;;;;;2.20;1.83;;;19.30;90.20;;;;;;5053749;28;20036;-66
2022/09/11 12:41:06;;;;;;;3.72;1.65;;;19.30;90.20;;;;;;5061248;28;20400;-66
2022/09/11 12:43:34;;;;;;;2.28;1.70;;;19.30;90.10;;;;;;5061957;28;20307;-66
2022/09/11 12:46:08;;;;;;;3.20;1.58;;;19.30;90.00;;;;;;5039272;28;20024;-65
2022/09/11 12:49:04;;;;;;;2.67;1.75;;;19.30;90.00;;;;;;5063967;28;20086;-66
2022/09/11 12:51:42;;;;;;;1.60;1.50;;;19.30;89.90;;;;;;5058969;28;20017;-66
2022/09/11 12:54:25;;;;;;;1.83;1.73;;;19.30;89.90;;;;;;5063420;28;20036;-66
2022/09/11 12:57:14;;;;;;;1.77;1.65;;;19.30;89.80;;;;;;5060289;28;20107;-66
2022/09/11 12:59:44;;;;;;;6.68;2.35;;;19.30;89.70;;;;;;5066228;28;20037;-66
2022/09/11 13:02:22;;;;;;;4.00;2.17;;;19.30;89.40;;;;;;5047839;28;20354;-66
2022/09/11 13:04:48;;;;;;;3.40;2.22;;;19.40;89.40;;;;;;5062289;28;20072;-66
2022/09/11 13:07:40;;;;;;;4.55;2.78;;;19.40;89.30;;;;;;5060993;28;20153;-66
2022/09/11 13:10:20;;;;;;;4.75;2.33;;;19.40;89.30;;;;;;5062744;28;20493;-66
2022/09/11 13:12:49;;;;;;;;;;;19.40;89.30;;;;;;5062475;28;20032;-66
2022/09/11 13:15:40;;;;;;;5.50;2.25;;;19.30;89.20;;;;;;5057481;28;19958;-66
2022/09/11 13:18:24;;;;;;;4.85;2.25;;;19.30;89.30;;;;;;5065742;28;20035;-66
2022/09/11 13:21:12;;;;;;;2.72;2.08;;;19.30;89.30;;;;;;5060528;28;20083;-66
2022/09/11 13:23:41;;;;;;;2.63;2.30;;;19.30;89.20;;;;;;5061074;28;20604;-66
2022/09/11 13:26:11;;;;;;;3.35;1.80;;;19.30;89.20;;;;;;5056799;28;20115;-66
2022/09/11 13:28:51;;;;;;;4.18;2.33;;;19.30;89.20;;;;;;5064432;28;20032;-66
2022/09/11 13:31:36;;;;;;;4.43;2.08;;;19.20;89.00;;;;;;5062968;28;20037;-66
2022/09/11 13:34:12;;;;;;;3.90;2.42;;;19.30;89.10;;;;;;5066630;28;20059;-68
2022/09/11 13:36:39;;;;;;;2.50;1.92;;;19.20;89.10;;;;;;5059368;28;20529;-72
2022/09/11 13:39:06;;;;;;;4.20;2.00;;;19.30;89.10;;;;;;5057858;28;20389;-70
2022/09/11 13:41:36;;;;;;;3.03;2.15;;;19.20;89.00;;;;;;5059177;28;20074;-70
2022/09/11 13:44:02;;;;;;;;;;;19.20;89.10;;;;;;5059481;28;20495;-70
2022/09/11 13:46:30;;;;;;;3.33;1.95;;;19.20;89.10;;;;;;5081078;28;20049;-70
2022/09/11 13:49:26;;;;;;;2.60;2.15;;;19.20;89.00;;;;;;5070527;28;20086;-70
2022/09/11 13:51:52;;;;;;;4.78;2.40;;;19.20;88.90;;;;;;5070483;28;20403;-71
2022/09/11 13:54:27;;;;;;;2.53;2.20;;;19.20;88.90;;;;;;5079141;28;20533;-70
2022/09/11 13:56:56;;;;;;;3.40;2.47;;;19.20;88.90;;;;;;5078368;28;20028;-70
2022/09/11 13:59:24;;;;;;;3.55;2.20;;;19.20;88.90;;;;;;5077067;28;20040;-70
2022/09/11 14:01:52;;;;;;;5.28;2.53;;;19.20;88.80;;;;;;5061937;28;20017;-70
2022/09/11 14:04:21;;;;;;;2.30;1.98;;;19.20;88.70;;;;;;5068522;28;20381;-71
2022/09/11 14:06:47;;;;;;;5.57;2.50;;;19.20;88.70;;;;;;5060825;28;20020;-70
2022/09/11 14:09:19;;;;;;;2.88;2.13;;;19.20;88.70;;;;;;5060553;28;20044;-71
2022/09/11 14:11:44;;;;;;;4.10;2.67;;;19.20;88.60;;;;;;5042735;28;20170;-71
2022/09/11 14:14:18;;;;;;;3.00;2.38;;;19.20;88.60;;;;;;5061000;28;20119;-71
2022/09/11 14:16:51;;;;;;;4.28;2.55;;;19.20;88.60;;;;;;5060481;28;20111;-70
2022/09/11 14:19:23;;;;;;;3.80;2.70;;;19.20;88.70;;;;;;5058051;28;20040;-70
2022/09/11 14:21:50;;;;;;;3.17;2.65;;;19.20;88.50;;;;;;5061444;28;20020;-71
2022/09/11 14:24:37;;;;;;;2.47;2.20;;;19.20;88.60;;;;;;5072643;28;20141;-71
2022/09/11 14:27:29;;;;;;;3.60;2.28;;;19.20;88.50;;;;;;5078369;28;20032;-71
2022/09/11 14:29:55;;;;;;;4.38;2.30;;;19.20;88.50;;;;;;5063740;28;20040;-71
2022/09/11 14:32:28;;;;;;;4.60;2.67;;;19.20;88.50;;;;;;5058702;28;20345;-71
2022/09/11 14:34:54;;;;;;;2.60;2.15;;;19.20;88.50;;;;;;5063675;28;20033;-71
2022/09/11 14:37:20;;;;;;;3.25;2.10;;;19.20;88.50;;;;;;5056348;28;20020;-71
2022/09/11 14:39:47;;;;;;;2.58;2.00;;;19.20;88.40;;;;;;5065099;28;20060;-71
2022/09/11 14:42:16;;;;;;;4.22;2.40;;;19.20;88.40;;;;;;5059668;28;20036;-72
2022/09/11 14:44:42;;;;;;;2.30;2.10;;;19.20;88.40;;;;;;5059351;28;20029;-71
2022/09/11 14:47:16;;;;;;;3.15;2.33;;;19.20;88.30;;;;;;5068169;28;20103;-73
2022/09/11 14:49:42;;;;;;;3.55;2.60;;;19.20;88.30;;;;;;5072578;28;20050;-71
2022/09/11 14:52:12;;;;;;;4.22;2.15;;;19.20;88.20;;;;;;5067854;28;20107;-71
2022/09/11 14:54:38;;;;;;;2.35;2.15;;;19.20;88.20;;;;;;5058033;28;20492;-71
2022/09/11 14:57:11;;;;;;;6.22;2.78;;;19.20;88.80;;;;;;5057873;28;20363;-68
2022/09/11 14:59:36;;;;;;;4.13;2.92;;;19.20;88.00;;;;;;5061597;28;20078;-66
2022/09/11 15:02:02;;;;;;;3.13;2.25;;;19.20;87.90;;;;;;5060556;28;20555;-66
2022/09/11 15:04:28;;;;;;;6.82;2.58;;;19.30;87.90;;;;;;5060833;28;20107;-67
2022/09/11 15:06:55;;;;;;;3.25;2.58;;;19.20;87.80;;;;;;5061097;28;20031;-67
2022/09/11 15:09:22;;;;;;;2.45;2.25;;;19.20;87.70;;;;;;5058179;28;20044;-67
2022/09/11 15:11:51;;;;;;;2.30;2.08;;;19.20;87.80;;;;;;5057525;28;20466;-67
2022/09/11 15:14:18;;;;;;;4.93;2.75;;;19.20;88.00;;;;;;5060218;28;20049;-69
2022/09/11 15:16:45;;;;;;;3.40;2.38;;;19.20;88.00;;;;;;5060308;28;20527;-69
2022/09/11 15:19:11;;;;;;;2.30;2.10;;;19.20;88.10;;;;;;5064909;28;20076;-69
2022/09/11 15:21:37;;;;;;;3.55;2.10;;;19.20;88.20;;;;;;5062991;28;20069;-68
2022/09/11 15:24:04;;;;;;;4.32;2.50;;;19.20;88.20;;;;;;5067860;28;20025;-69
2022/09/11 15:26:30;;;;;;;3.13;2.30;;;19.20;88.20;;;;;;5067881;28;20029;-69
2022/09/11 15:28:56;;;;;;;3.22;1.98;;;19.20;88.20;;;;;;5068337;28;20028;-69
2022/09/11 15:31:23;;;;;;;3.85;2.35;;;19.20;88.20;;;;;;5070047;28;20027;-69
2022/09/11 15:33:52;;;;;;;5.85;2.75;;;19.20;88.20;;;;;;5064611;28;20097;-69
2022/09/11 15:36:20;;;;;;;2.40;2.20;;;19.20;88.20;;;;;;5065386;28;20036;-69
2022/09/11 15:38:52;;;;;;;2.85;2.40;;;19.20;88.20;;;;;;5072194;28;20040;-69
2022/09/11 15:41:20;;;;;;;2.55;2.33;;;19.20;88.30;;;;;;5071045;28;20035;-69
2022/09/11 15:43:47;;;;;;;3.50;2.70;;;19.20;88.20;;;;;;5064808;28;20514;-69
2022/09/11 15:46:13;;;;;;;3.78;2.40;;;19.20;88.20;;;;;;5071113;28;20039;-69
2022/09/11 15:48:39;;;;;;;3.33;2.65;;;19.20;88.10;;;;;;5066757;28;20020;-68
2022/09/11 15:51:06;;;;;;;5.03;3.33;;;19.20;88.00;;;;;;5076608;28;20032;-69
2022/09/11 15:53:33;;;;;;;8.95;4.70;;;19.20;88.00;;;;;;5062726;28;20086;-68
2022/09/11 15:56:03;;;;;;;4.90;3.10;;;19.20;87.90;;;;;;5056845;28;20033;-69
2022/09/11 15:58:30;;;;;;;2.23;2.03;;;19.20;87.90;;;;;;5066250;28;20056;-69
2022/09/11 16:00:56;;;;;;;5.43;2.60;;;19.10;87.70;;;;;;5070763;28;20619;-68
2022/09/11 16:03:21;;;;;;;7.50;2.72;;;19.10;87.60;;;;;;5060162;28;20040;-69
2022/09/11 16:05:47;;;;;;;3.17;2.47;;;19.10;87.50;;;;;;5074251;28;20024;-69
2022/09/11 16:08:14;;;;;;;7.32;3.25;;;19.10;87.50;;;;;;5056870;28;20028;-69
2022/09/11 16:10:40;;;;;;;7.18;2.75;;;19.10;87.50;;;;;;5071131;28;20029;-68
2022/09/11 16:13:06;;;;;;;4.35;2.53;;;19.10;87.50;;;;;;5076297;28;20081;-69
2022/09/11 16:15:33;;;;;;;4.35;2.90;;;19.10;87.50;;;;;;5065038;28;20032;-69
2022/09/11 16:17:58;;;;;;;4.03;2.92;;;19.10;87.60;;;;;;5071245;28;20056;-69
2022/09/11 16:20:24;;;;;;;5.03;3.15;;;19.10;87.70;;;;;;5060607;28;20070;-70
2022/09/11 16:22:50;;;;;;;5.70;2.72;;;19.10;87.70;;;;;;5057611;28;20036;-69
2022/09/11 16:25:17;;;;;;;4.55;2.60;;;19.10;87.80;;;;;;5078138;28;20035;-69
2022/09/11 16:27:42;;;;;;;3.95;2.58;;;19.10;87.80;;;;;;5072539;28;20024;-69
2022/09/11 16:30:09;;;;;;;4.55;2.72;;;19.10;87.80;;;;;;5070709;28;20058;-69
2022/09/11 16:32:38;;;;;;;5.68;2.88;;;19.10;87.90;;;;;;5064377;28;20358;-69
2022/09/11 16:35:05;;;;;;;3.92;2.88;;;19.10;87.90;;;;;;5061739;28;20124;-69
2022/09/11 16:37:34;;;;;;;3.30;2.78;;;19.10;88.00;;;;;;5052353;28;20028;-69
2022/09/11 16:40:01;;;;;;;5.70;2.85;;;19.10;88.20;;;;;;5047659;28;20457;-69
2022/09/11 16:42:27;;;;;;;4.30;2.72;;;19.10;88.30;;;;;;5070071;28;20040;-69
2022/09/11 16:45:37;;;;;;;4.13;2.30;;;19.10;88.40;;;;;;5069575;28;20083;-69
2022/09/11 16:48:03;;;;;;;2.37;2.17;;;19.10;88.40;;;;;;5071646;28;20032;-69